Huvudsida
METAR-TAF:

METAR-TAF

Flygplatser :

Nouakchotts flygplats

Nouakchott, Mauretanien

latitud: 18-18-36N, longitud: 015-58-11W, höjd: 3 m

Aktuellt väderrapport

Denna rapport gjordes för 1 timme och 2 minuter sedan, klockan 02:00 UTC
Vind 7 kt från väst/nordväst
Temperatur 27°C
Fuktighet 84%
Tryck 1012 hPa
Sikt 10 km eller mer
Inga moln under 1 500 m eller inga cumulonimbus

METAR: GQNO 230200Z 30007KT CAVOK 27/24 Q1012 NOSIG

Tid: 03:02 (03:02 UTC)

Väderprognos

Denna rapport gjordes för 10 timmar och 2 minuter sedan, klockan 17:00 UTC
Prognos gäller från 22 kl. 18 UTC till 23 kl. 24 UTC
Vind 12 kt från nord/nordväst
Sikt: 8000 m
Sannolikhet 30% :
Temporärt
från 23 kl. 03 UTC till 23 kl. 07 UTC
Brutna moln på en höjd av 1300 ft

TAF: GQNO 221700Z 2218/2324 33012KT 8000 NSC PROB30 TEMPO 2303/2307 BKN013

Aktuella väderrapporter och prognoser från 4000 flygplatser (METAR- och TAF-rapporter).

De tillgängliga stationerna syns som gula och röda prickar på kartan.

För musen över prickarna för att se namnen på stationerna.

Klicka sedan för att få väderrapporter och prognoser.

För att ändra kartan: Klicka på de gröna knapparna med ett svart kors på för att zooma in; den gröna knappen med ett streck på för att zooma ut; eller på de gröna pilarna för angränsande kartor.


METAR-TAF: